Time;durP1;ratioP1;P1;durP2;ratioP2;P2;SDS_P1;SDS_P2;PMS_P1;PMS_P2;Temp;Humidity;BMP_temperature;BMP_pressure;BME280_temperature;BME280_humidity;BME280_pressure;Samples;Min_cycle;Max_cycle;Signal;HPM_P1;HPM_P2
2023/03/19 00:00:31;;;;;;;3.17;2.17;;;;;;;10.45;95.38;101074.00;6159285;23;20511;-73
2023/03/19 00:02:58;;;;;;;2.10;2.00;;;;;;;10.44;95.83;101077.81;6159499;23;20365;-73
2023/03/19 00:05:25;;;;;;;2.47;2.30;;;;;;;10.42;96.55;101083.56;6132387;23;20445;-74
2023/03/19 00:07:51;;;;;;;3.20;2.35;;;;;;;10.42;96.84;101083.56;6159685;23;20017;-73
2023/03/19 00:10:18;;;;;;;2.40;2.20;;;;;;;10.41;97.60;101084.00;6159121;23;20433;-73
2023/03/19 00:12:45;;;;;;;3.67;2.30;;;;;;;10.41;97.87;101084.00;6159764;23;20014;-73
2023/03/19 00:15:13;;;;;;;2.75;2.50;;;;;;;10.41;97.90;101090.06;6158907;23;20377;-73
2023/03/19 00:17:43;;;;;;;2.35;2.25;;;;;;;10.40;98.32;101088.56;6159867;23;20049;-73
2023/03/19 00:20:11;;;;;;;4.75;2.58;;;;;;;10.40;98.37;101088.56;6131799;23;20428;-74
2023/03/19 00:22:38;;;;;;;3.28;2.53;;;;;;;10.40;98.20;101079.88;6159545;23;20009;-73
2023/03/19 00:25:07;;;;;;;3.95;2.60;;;;;;;10.39;97.90;101089.03;6159071;23;20010;-73
2023/03/19 00:27:35;;;;;;;3.63;2.53;;;;;;;10.36;98.34;101101.28;6132486;23;20101;-73
2023/03/19 00:30:03;;;;;;;2.53;2.33;;;;;;;10.35;98.98;101097.88;6158928;23;20412;-73
2023/03/19 00:32:30;;;;;;;2.65;2.45;;;;;;;10.34;98.78;101091.06;6132286;23;20576;-73
2023/03/19 00:34:56;;;;;;;4.80;2.42;;;;;;;10.33;98.93;101102.13;6158379;23;20472;-74
2023/03/19 00:37:23;;;;;;;3.17;2.38;;;;;;;10.31;99.01;101096.50;6158874;23;20396;-73
2023/03/19 00:39:49;;;;;;;3.25;2.95;;;;;;;10.30;99.12;101095.00;6132565;23;20546;-73
2023/03/19 00:42:16;;;;;;;2.15;2.05;;;;;;;10.28;98.91;101100.00;6132091;23;20021;-75
2023/03/19 00:44:42;;;;;;;2.85;2.65;;;;;;;10.25;99.28;101096.28;6159345;23;20065;-73
2023/03/19 00:47:09;;;;;;;2.97;2.78;;;;;;;10.23;99.25;101095.97;6131637;23;20018;-73
2023/03/19 00:49:36;;;;;;;3.42;2.80;;;;;;;10.21;99.92;101092.25;6158700;23;20077;-73
2023/03/19 00:52:03;;;;;;;2.70;2.55;;;;;;;10.19;99.63;101095.34;6159234;23;20447;-74
2023/03/19 00:54:31;;;;;;;3.08;2.78;;;;;;;10.18;99.97;101096.47;6159113;23;20014;-73
2023/03/19 00:56:57;;;;;;;3.35;2.80;;;;;;;10.15;99.72;101094.66;6158581;23;20018;-73
2023/03/19 00:59:24;;;;;;;2.45;2.25;;;;;;;10.12;99.93;101095.53;6158824;23;20137;-73
2023/03/19 01:01:51;;;;;;;2.88;2.67;;;;;;;10.09;99.75;101085.72;6159190;23;20110;-73
2023/03/19 01:04:18;;;;;;;3.53;2.75;;;;;;;10.06;99.61;101093.81;6131385;23;20026;-75
2023/03/19 01:06:45;;;;;;;2.95;2.75;;;;;;;10.03;99.76;101103.38;6131834;23;20413;-74
2023/03/19 01:09:11;;;;;;;3.42;2.80;;;;;;;9.97;99.78;101108.53;6158408;23;20022;-73
2023/03/19 01:11:38;;;;;;;2.60;2.50;;;;;;;9.93;99.84;101104.47;6158843;23;20014;-74
2023/03/19 01:14:05;;;;;;;3.05;2.78;;;;;;;9.88;100.00;101107.66;6158502;23;20034;-74
2023/03/19 01:16:33;;;;;;;3.08;2.85;;;;;;;9.85;100.00;101111.16;6158406;23;20448;-74
2023/03/19 01:19:01;;;;;;;4.53;2.90;;;;;;;9.82;100.00;101112.03;6131407;23;20025;-74
2023/03/19 01:21:30;;;;;;;3.92;3.20;;;;;;;9.80;100.00;101103.72;6107853;23;20053;-74
2023/03/19 01:23:57;;;;;;;4.88;2.83;;;;;;;9.77;100.00;101104.56;6158886;23;20018;-74
2023/03/19 01:26:26;;;;;;;3.10;2.90;;;;;;;9.75;100.00;101101.59;6131783;23;20073;-74
2023/03/19 01:28:57;;;;;;;3.67;3.38;;;;;;;9.70;100.00;101103.59;6131809;23;20021;-74
2023/03/19 01:31:24;;;;;;;3.88;3.38;;;;;;;9.66;100.00;101100.28;6131204;23;20049;-74
2023/03/19 01:34:00;;;;;;;3.53;3.20;;;;;;;9.64;100.00;101104.53;6158584;23;20025;-74
2023/03/19 01:36:35;;;;;;;5.18;3.58;;;;;;;9.63;100.00;101111.03;6132245;23;20018;-75
2023/03/19 01:39:04;;;;;;;4.60;3.80;;;;;;;9.62;100.00;101112.94;6132025;23;20029;-74
2023/03/19 01:41:31;;;;;;;5.15;3.55;;;;;;;9.63;100.00;101108.38;6131996;23;20018;-74
2023/03/19 01:44:22;;;;;;;4.23;3.53;;;;;;;9.66;100.00;101102.22;6131322;23;20025;-74
2023/03/19 01:47:15;;;;;;;4.03;3.70;;;;;;;9.67;100.00;101101.03;6130999;23;20237;-74
2023/03/19 01:50:03;;;;;;;3.92;3.63;;;;;;;9.67;100.00;101101.78;6157771;23;20228;-74
2023/03/19 01:52:33;;;;;;;4.28;3.88;;;;;;;9.67;100.00;101098.38;6131555;23;20018;-74
2023/03/19 01:55:23;;;;;;;3.88;3.58;;;;;;;9.67;100.00;101103.69;6136911;23;20464;-73
2023/03/19 01:58:10;;;;;;;3.97;3.67;;;;;;;9.68;100.00;101108.59;6130841;23;20442;-73
2023/03/19 02:00:57;;;;;;;4.07;3.78;;;;;;;9.67;100.00;101099.13;6156957;23;20421;-72
2023/03/19 02:03:25;;;;;;;4.10;3.72;;;;;;;9.68;100.00;101116.56;6105964;23;20018;-73
2023/03/19 02:06:11;;;;;;;5.07;3.70;;;;;;;9.68;100.00;101102.53;6158146;23;20041;-73
2023/03/19 02:08:38;;;;;;;5.10;3.85;;;;;;;9.67;100.00;101109.75;6158440;23;20014;-73
2023/03/19 02:11:05;;;;;;;4.18;3.80;;;;;;;9.68;100.00;101113.16;6158028;23;20057;-73
2023/03/19 02:13:33;;;;;;;4.60;4.15;;;;;;;9.67;100.00;101115.06;6131337;23;20480;-72
2023/03/19 02:16:00;;;;;;;4.28;3.63;;;;;;;9.68;100.00;101121.13;6130734;23;20089;-75
2023/03/19 02:18:27;;;;;;;5.80;4.07;;;;;;;9.68;100.00;101118.47;6131869;23;20481;-75
2023/03/19 02:21:29;;;;;;;4.20;3.85;;;;;;;9.69;100.00;101118.06;6133531;23;20019;-73
2023/03/19 02:24:21;;;;;;;3.97;3.67;;;;;;;9.69;100.00;101118.06;6011433;23;20047;-72
2023/03/19 02:27:01;;;;;;;6.10;4.35;;;;;;;9.69;100.00;101123.38;5987584;23;20154;-72
2023/03/19 02:29:28;;;;;;;4.15;3.75;;;;;;;9.67;100.00;101117.75;5986948;23;20028;-72
2023/03/19 02:31:58;;;;;;;4.43;3.83;;;;;;;9.66;100.00;101112.84;5987499;23;20026;-73
2023/03/19 02:34:24;;;;;;;5.88;3.92;;;;;;;9.62;100.00;101109.53;5987781;23;20021;-72
2023/03/19 02:36:56;;;;;;;4.55;4.13;;;;;;;9.57;100.00;101110.09;5988165;23;20189;-73
2023/03/19 02:39:31;;;;;;;4.18;3.97;;;;;;;9.54;100.00;101122.31;6011680;23;20051;-73
2023/03/19 02:41:59;;;;;;;4.80;4.40;;;;;;;9.51;100.00;101114.44;5987945;23;20550;-73
2023/03/19 02:44:29;;;;;;;5.32;4.25;;;;;;;9.49;100.00;101119.41;5987113;23;20063;-73
2023/03/19 02:46:56;;;;;;;4.32;3.92;;;;;;;9.44;100.00;101123.34;6011241;23;20031;-73
2023/03/19 02:49:23;;;;;;;4.70;4.30;;;;;;;9.42;100.00;101120.34;5987535;23;20025;-73
2023/03/19 02:51:50;;;;;;;4.35;4.00;;;;;;;9.42;100.00;101119.63;6011584;23;20035;-75
2023/03/19 02:54:17;;;;;;;4.88;4.40;;;;;;;9.43;100.00;101123.75;5987431;23;20422;-73
2023/03/19 02:56:43;;;;;;;4.55;4.18;;;;;;;9.43;100.00;101127.16;6011825;23;20028;-73
2023/03/19 02:59:10;;;;;;;5.50;4.80;;;;;;;9.44;100.00;101128.66;6157352;23;20018;-73
2023/03/19 03:01:36;;;;;;;4.85;4.55;;;;;;;9.47;100.00;101138.44;6108995;23;20365;-73
2023/03/19 03:04:04;;;;;;;5.03;4.53;;;;;;;9.47;100.00;101127.06;6132813;23;20109;-73
2023/03/19 03:06:31;;;;;;;5.40;4.57;;;;;;;9.46;100.00;101130.91;6159430;23;20022;-73
2023/03/19 03:09:00;;;;;;;6.45;4.85;;;;;;;9.44;100.00;101133.97;6132925;23;20018;-73
2023/03/19 03:11:26;;;;;;;5.25;4.75;;;;;;;9.45;100.00;101132.81;6159652;23;20456;-73
2023/03/19 03:13:53;;;;;;;5.57;4.80;;;;;;;9.45;100.00;101132.06;6159292;23;20044;-73
2023/03/19 03:16:20;;;;;;;6.55;5.45;;;;;;;9.42;100.00;101130.97;6158943;23;20024;-73
2023/03/19 03:18:47;;;;;;;6.78;5.10;;;;;;;9.40;100.00;101128.00;6159559;23;20090;-73
2023/03/19 03:21:14;;;;;;;6.38;5.78;;;;;;;9.38;100.00;101132.25;6132420;23;20418;-73
2023/03/19 03:23:40;;;;;;;7.55;5.35;;;;;;;9.37;100.00;101131.50;6159783;23;20013;-73
2023/03/19 03:26:07;;;;;;;6.75;6.13;;;;;;;9.38;100.00;101129.59;6159342;23;20401;-73
2023/03/19 03:28:34;;;;;;;6.55;5.72;;;;;;;9.37;100.00;101128.84;6132530;23;20125;-73
2023/03/19 03:31:01;;;;;;;6.80;6.07;;;;;;;9.37;100.00;101139.47;6158782;23;20028;-73
2023/03/19 03:33:28;;;;;;;9.95;6.50;;;;;;;9.35;100.00;101139.16;6158993;23;20473;-73
2023/03/19 03:35:55;;;;;;;7.55;6.50;;;;;;;9.32;100.00;101132.00;6159757;23;20595;-73
2023/03/19 03:38:22;;;;;;;8.18;7.43;;;;;;;9.27;100.00;101135.94;6159086;23;20017;-73
2023/03/19 03:40:51;;;;;;;7.72;6.97;;;;;;;9.25;100.00;101138.25;6159569;23;20105;-73
2023/03/19 03:43:20;;;;;;;8.18;7.43;;;;;;;9.24;100.00;101138.69;6131561;23;20048;-73
2023/03/19 03:45:47;;;;;;;8.65;7.63;;;;;;;9.25;100.00;101135.59;6159338;23;20018;-73
2023/03/19 03:48:15;;;;;;;9.82;7.20;;;;;;;9.25;100.00;101138.25;6132243;23;20022;-74
2023/03/19 03:50:42;;;;;;;8.65;7.55;;;;;;;9.26;100.00;101145.06;6159414;23;20105;-74
2023/03/19 03:53:13;;;;;;;10.07;8.13;;;;;;;9.23;100.00;101139.84;6132030;23;20309;-74
2023/03/19 03:55:40;;;;;;;9.80;8.57;;;;;;;9.20;100.00;101146.00;6159441;23;20010;-74
2023/03/19 03:58:06;;;;;;;9.60;8.15;;;;;;;9.14;100.00;101147.69;6131601;23;20441;-74
2023/03/19 04:00:33;;;;;;;8.93;8.05;;;;;;;9.10;100.00;101139.81;6132787;23;20040;-74
2023/03/19 04:03:00;;;;;;;10.68;8.60;;;;;;;9.06;100.00;101141.81;6132484;23;20380;-73
2023/03/19 04:05:27;;;;;;;10.95;8.43;;;;;;;9.03;100.00;101134.69;6132482;23;20073;-74
2023/03/19 04:07:53;;;;;;;8.98;8.05;;;;;;;8.98;100.00;101143.16;6132823;23;20022;-74
2023/03/19 04:10:20;;;;;;;9.27;8.38;;;;;;;8.92;100.00;101136.84;6132206;23;20452;-74
2023/03/19 04:12:47;;;;;;;11.32;8.65;;;;;;;8.90;100.00;101128.56;6132324;23;20018;-73
2023/03/19 04:15:14;;;;;;;9.80;8.75;;;;;;;8.87;100.00;101135.44;6132058;23;20435;-74
2023/03/19 04:17:44;;;;;;;8.95;8.05;;;;;;;8.84;100.00;101135.53;6132516;23;20096;-74
2023/03/19 04:20:11;;;;;;;10.60;8.60;;;;;;;8.79;100.00;101136.81;6132121;23;20423;-73
2023/03/19 04:22:38;;;;;;;9.30;8.20;;;;;;;8.77;100.00;101136.47;6132770;23;20025;-73
2023/03/19 04:25:07;;;;;;;10.82;8.93;;;;;;;8.74;100.00;101141.88;6132417;23;20021;-75
2023/03/19 04:27:35;;;;;;;9.90;8.90;;;;;;;8.69;100.00;101145.78;6131961;23;20109;-75
2023/03/19 04:30:03;;;;;;;11.70;9.07;;;;;;;8.64;100.00;101139.06;6132346;23;20052;-73
2023/03/19 04:32:29;;;;;;;10.13;8.73;;;;;;;8.60;100.00;101143.69;6132507;23;20018;-75
2023/03/19 04:34:57;;;;;;;12.43;9.40;;;;;;;8.59;100.00;101150.16;6132440;23;20046;-75
2023/03/19 04:37:23;;;;;;;10.27;9.15;;;;;;;8.55;100.00;101144.19;6158631;23;20028;-75
2023/03/19 04:39:50;;;;;;;10.90;9.63;;;;;;;8.51;100.00;101140.88;6132230;23;20430;-76
2023/03/19 04:42:18;;;;;;;13.43;9.00;;;;;;;8.48;100.00;101146.25;6107565;23;20506;-75
2023/03/19 04:44:54;;;;;;;11.13;8.65;;;;;;;8.45;100.00;101152.41;6132324;23;20061;-75
2023/03/19 04:47:22;;;;;;;10.63;9.63;;;;;;;8.42;100.00;101146.00;6103110;23;20085;-75
2023/03/19 04:49:56;;;;;;;13.27;9.82;;;;;;;8.39;100.00;101140.81;6104717;23;20023;-75
2023/03/19 04:52:24;;;;;;;11.45;9.60;;;;;;;8.37;100.00;101141.22;6127083;23;20067;-75
2023/03/19 04:54:50;;;;;;;10.30;9.30;;;;;;;8.33;100.00;101143.94;6127132;23;20092;-75
2023/03/19 04:57:17;;;;;;;13.13;10.35;;;;;;;8.30;100.00;101144.75;6128433;23;20022;-75
2023/03/19 04:59:46;;;;;;;14.38;10.18;;;;;;;8.27;100.00;101142.16;6127310;23;20018;-75
2023/03/19 05:02:14;;;;;;;11.27;9.70;;;;;;;8.21;100.00;101144.56;6126626;23;20022;-73
2023/03/19 05:04:41;;;;;;;13.48;9.95;;;;;;;8.19;100.00;101146.88;6127748;23;20015;-74
2023/03/19 05:07:12;;;;;;;12.10;10.20;;;;;;;8.15;100.00;101154.16;6128731;23;20019;-74
2023/03/19 05:09:42;;;;;;;16.20;9.82;;;;;;;8.13;100.00;101167.09;6126830;23;20050;-74
2023/03/19 05:12:10;;;;;;;10.80;9.60;;;;;;;8.08;100.00;101172.88;6128611;23;20042;-74
2023/03/19 05:14:43;;;;;;;11.55;9.07;;;;;;;8.04;100.00;101172.94;6127809;23;20018;-73
2023/03/19 05:17:17;;;;;;;10.75;9.52;;;;;;;7.98;100.00;101179.91;6126849;23;20088;-73
2023/03/19 05:19:51;;;;;;;10.55;8.60;;;;;;;7.96;100.00;101181.47;6127276;23;20022;-73
2023/03/19 05:22:19;;;;;;;11.77;9.10;;;;;;;7.92;100.00;101186.09;6126711;23;20161;-73
2023/03/19 05:24:45;;;;;;;11.13;9.73;;;;;;;7.89;100.00;101189.56;6102832;23;20109;-74
2023/03/19 05:27:12;;;;;;;11.18;9.32;;;;;;;7.85;100.00;101187.00;6126462;23;20029;-73
2023/03/19 05:29:55;;;;;;;12.05;9.57;;;;;;;7.85;100.00;101186.25;6126685;23;20022;-74
2023/03/19 05:32:40;;;;;;;10.07;9.00;;;;;;;7.83;100.00;101189.31;6127513;23;20029;-73
2023/03/19 05:35:13;;;;;;;11.68;9.65;;;;;;;7.82;100.00;101187.06;6126667;23;20101;-74
2023/03/19 05:37:40;;;;;;;11.60;9.65;;;;;;;7.80;100.00;101187.47;6127012;23;20499;-73
2023/03/19 05:40:09;;;;;;;11.00;9.90;;;;;;;7.78;100.00;101191.69;6125839;23;20450;-74
2023/03/19 05:42:36;;;;;;;15.60;11.40;;;;;;;7.77;100.00;101198.13;6126962;23;20566;-73
2023/03/19 05:45:04;;;;;;;13.85;9.93;;;;;;;7.74;100.00;101198.94;6126456;23;20072;-74
2023/03/19 05:47:39;;;;;;;14.23;10.75;;;;;;;7.70;100.00;101206.97;6126431;23;20052;-74
2023/03/19 05:50:07;;;;;;;12.50;10.27;;;;;;;7.68;100.00;101207.38;6126264;23;20068;-73
2023/03/19 05:52:35;;;;;;;12.55;10.15;;;;;;;7.67;100.00;101218.38;6126164;23;20093;-73
2023/03/19 05:55:03;;;;;;;12.85;10.30;;;;;;;7.65;100.00;101218.03;6128066;23;20073;-74
2023/03/19 05:57:43;;;;;;;14.15;9.85;;;;;;;7.62;100.00;101211.66;6128098;23;20484;-74
2023/03/19 06:00:22;;;;;;;12.10;10.10;;;;;;;7.60;100.00;101226.47;6128378;23;20023;-73
2023/03/19 06:02:50;;;;;;;15.23;10.52;;;;;;;7.60;100.00;101221.91;6130559;23;20022;-74
2023/03/19 06:05:33;;;;;;;14.18;10.27;;;;;;;7.59;100.00;101222.34;6130246;23;20023;-74
2023/03/19 06:08:29;;;;;;;12.20;10.43;;;;;;;7.61;100.00;101226.06;6127983;23;20023;-73
2023/03/19 06:11:13;;;;;;;14.25;11.35;;;;;;;7.62;100.00;101224.16;6128163;23;20082;-73
2023/03/19 06:13:42;;;;;;;15.38;11.20;;;;;;;7.62;100.00;101218.84;6128587;23;20015;-74
2023/03/19 06:16:12;;;;;;;14.82;11.65;;;;;;;7.64;100.00;101233.19;6128167;23;20449;-73
2023/03/19 06:18:46;;;;;;;19.05;11.80;;;;;;;7.67;100.00;101236.94;6128677;23;20086;-74
2023/03/19 06:21:16;;;;;;;16.75;12.43;;;;;;;7.70;100.00;101231.56;6127232;23;20018;-73
2023/03/19 06:23:43;;;;;;;19.48;12.18;;;;;;;7.72;100.00;101243.66;6128736;23;20018;-73
2023/03/19 06:26:12;;;;;;;15.52;12.07;;;;;;;7.73;100.00;101240.59;6127397;23;20456;-73
2023/03/19 06:28:48;;;;;;;14.80;12.18;;;;;;;7.69;100.00;101248.63;6128295;23;20022;-74
2023/03/19 06:31:16;;;;;;;15.40;11.55;;;;;;;7.70;100.00;101247.47;6127154;23;20463;-73
2023/03/19 06:33:51;;;;;;;14.18;11.27;;;;;;;7.73;100.00;101247.81;6130117;23;20026;-73
2023/03/19 06:36:18;;;;;;;15.48;11.52;;;;;;;7.75;100.00;101246.25;6126594;23;20054;-73
2023/03/19 06:38:46;;;;;;;18.75;11.60;;;;;;;7.78;100.00;101253.38;6128208;23;20067;-73
2023/03/19 06:41:12;;;;;;;14.68;11.82;;;;;;;7.81;100.00;101251.84;6129356;23;20026;-73
2023/03/19 06:43:41;;;;;;;16.58;12.30;;;;;;;7.84;100.00;101258.97;6104059;23;20113;-74
2023/03/19 06:46:08;;;;;;;17.27;11.30;;;;;;;7.88;100.00;101262.31;6134531;23;20018;-73
2023/03/19 06:48:37;;;;;;;15.63;11.63;;;;;;;7.90;100.00;101255.44;6159511;23;20018;-74
2023/03/19 06:51:04;;;;;;;14.20;11.15;;;;;;;7.93;100.00;101257.28;6158603;23;20053;-74
2023/03/19 06:53:31;;;;;;;15.18;11.32;;;;;;;7.94;100.00;101258.03;6159213;23;20471;-73
2023/03/19 06:55:57;;;;;;;16.63;11.52;;;;;;;7.96;100.00;101267.06;6159283;23;20013;-74
2023/03/19 06:58:24;;;;;;;17.73;12.10;;;;;;;7.99;100.00;101268.91;6159242;23;20109;-74
2023/03/19 07:00:50;;;;;;;19.92;12.82;;;;;;;8.02;100.00;101264.66;6159360;23;20029;-73
2023/03/19 07:03:17;;;;;;;17.25;12.43;;;;;;;8.06;100.00;101265.34;6158607;23;20041;-74
2023/03/19 07:05:43;;;;;;;21.70;13.25;;;;;;;8.11;100.00;101278.13;6158956;23;20033;-73
2023/03/19 07:08:11;;;;;;;23.05;13.23;;;;;;;8.16;100.00;101276.91;6158613;23;20022;-74
2023/03/19 07:10:38;;;;;;;17.27;12.23;;;;;;;8.18;100.00;101280.66;6132962;23;20423;-75
2023/03/19 07:13:05;;;;;;;18.02;12.23;;;;;;;8.24;100.00;101286.97;6160099;23;20021;-75
2023/03/19 07:15:33;;;;;;;16.02;12.23;;;;;;;8.25;100.00;101288.47;6160016;23;20006;-75
2023/03/19 07:17:59;;;;;;;18.67;12.73;;;;;;;8.25;100.00;101293.78;6134491;23;20381;-74
2023/03/19 07:20:26;;;;;;;18.23;12.73;;;;;;;8.27;100.00;101291.47;6159373;23;20018;-76
2023/03/19 07:22:53;;;;;;;18.50;13.68;;;;;;;8.29;100.00;101299.75;6158281;23;20049;-75
2023/03/19 07:25:19;;;;;;;22.85;13.65;;;;;;;8.31;100.00;101297.44;6131630;23;20014;-75
2023/03/19 07:27:46;;;;;;;25.13;14.88;;;;;;;8.27;100.00;101303.97;6157881;23;20014;-76
2023/03/19 07:30:14;;;;;;;26.95;15.15;;;;;;;8.27;100.00;101309.28;6157357;23;20018;-75
2023/03/19 07:32:41;;;;;;;25.80;15.55;;;;;;;8.27;100.00;101322.53;6159706;23;20102;-75
2023/03/19 07:35:09;;;;;;;32.42;17.35;;;;;;;8.21;100.00;101316.22;6133481;23;20046;-74
2023/03/19 07:37:36;;;;;;;28.52;16.30;;;;;;;8.21;100.00;101316.22;6134153;23;20018;-76
2023/03/19 07:40:03;;;;;;;29.27;16.63;;;;;;;8.19;100.00;101321.19;6160165;23;20022;-75
2023/03/19 07:42:30;;;;;;;34.10;17.48;;;;;;;8.21;100.00;101326.81;6160036;23;20045;-75
2023/03/19 07:44:57;;;;;;;26.88;17.38;;;;;;;8.21;100.00;101329.47;6159665;23;20463;-76
2023/03/19 07:47:23;;;;;;;28.98;17.58;;;;;;;8.22;100.00;101336.28;6159507;23;20022;-76
2023/03/19 07:49:56;;;;;;;33.15;18.05;;;;;;;8.26;100.00;101339.63;6133368;23;20528;-76
2023/03/19 07:52:23;;;;;;;30.02;18.17;;;;;;;8.26;100.00;101347.56;6159701;23;20505;-75
2023/03/19 07:54:50;;;;;;;31.42;18.23;;;;;;;8.31;100.00;101352.41;6160416;23;20010;-74
2023/03/19 07:57:16;;;;;;;28.63;18.33;;;;;;;8.31;100.00;101353.16;6159664;23;20089;-74
2023/03/19 07:59:43;;;;;;;34.70;19.45;;;;;;;8.37;100.00;101364.06;6160083;23;20144;-75
2023/03/19 08:02:10;;;;;;;33.53;18.25;;;;;;;8.32;100.00;101359.97;6159731;23;20010;-74
2023/03/19 08:04:38;;;;;;;32.88;17.80;;;;;;;8.33;100.00;101363.38;6158829;23;20014;-74
2023/03/19 08:07:05;;;;;;;29.98;17.70;;;;;;;8.32;100.00;101357.31;6109284;23;20440;-75
2023/03/19 08:09:32;;;;;;;31.33;18.05;;;;;;;8.35;100.00;101353.13;6159733;23;20026;-75
2023/03/19 08:11:58;;;;;;;30.23;17.85;;;;;;;8.45;100.00;101354.03;6134131;23;20013;-75
2023/03/19 08:14:25;;;;;;;30.15;17.35;;;;;;;8.50;100.00;101364.19;6133395;23;20065;-75
2023/03/19 08:16:51;;;;;;;27.33;17.40;;;;;;;8.58;100.00;101355.66;6159631;23;20022;-75
2023/03/19 08:19:18;;;;;;;28.20;16.25;;;;;;;8.66;100.00;101362.34;6159046;23;20081;-75
2023/03/19 08:21:44;;;;;;;28.15;17.08;;;;;;;8.79;100.00;101365.13;6160116;23;20014;-75
2023/03/19 08:24:11;;;;;;;26.73;17.77;;;;;;;8.88;100.00;101365.28;6133413;23;20018;-75
2023/03/19 08:26:37;;;;;;;29.10;17.83;;;;;;;8.99;100.00;101367.72;6159503;23;20400;-76
2023/03/19 08:29:05;;;;;;;30.17;17.05;;;;;;;9.12;100.00;101378.44;6159929;23;20025;-77
2023/03/19 08:31:32;;;;;;;29.42;17.90;;;;;;;9.23;100.00;101371.72;6133204;23;20095;-77
2023/03/19 08:34:05;;;;;;;28.48;17.95;;;;;;;9.27;100.00;101377.69;6133041;23;20073;-76
2023/03/19 08:36:31;;;;;;;27.35;17.05;;;;;;;9.29;100.00;101387.91;6159734;23;20061;-76
2023/03/19 08:38:58;;;;;;;24.75;16.27;;;;;;;9.34;100.00;101382.09;6159794;23;20026;-77
2023/03/19 08:41:24;;;;;;;22.88;14.45;;;;;;;9.40;100.00;101387.66;6159288;23;20057;-76
2023/03/19 08:43:51;;;;;;;23.05;14.82;;;;;;;9.37;99.94;101391.91;6160094;23;20014;-77
2023/03/19 08:46:18;;;;;;;21.23;13.82;;;;;;;9.32;99.46;101392.41;6158739;23;20018;-76
2023/03/19 08:48:45;;;;;;;24.13;14.98;;;;;;;9.30;99.48;101398.13;6160213;23;20018;-76
2023/03/19 08:51:11;;;;;;;23.70;14.88;;;;;;;9.33;99.26;101399.19;6159583;23;20014;-76
2023/03/19 08:53:38;;;;;;;23.17;15.23;;;;;;;9.32;99.10;101403.03;6133761;23;20025;-77
2023/03/19 08:56:09;;;;;;;21.95;14.35;;;;;;;9.39;98.95;101400.22;6133341;23;20041;-76
2023/03/19 08:58:35;;;;;;;20.17;13.95;;;;;;;9.57;99.25;101395.22;6133937;23;20084;-76
2023/03/19 09:01:03;;;;;;;19.77;14.40;;;;;;;9.69;98.25;101402.53;6159250;23;20049;-77
2023/03/19 09:03:31;;;;;;;20.40;14.23;;;;;;;9.80;97.84;101402.25;6133643;23;20018;-76
2023/03/19 09:06:02;;;;;;;18.92;14.38;;;;;;;9.93;96.52;101408.41;6159800;23;20018;-76
2023/03/19 09:08:29;;;;;;;19.60;14.15;;;;;;;9.95;96.11;101402.66;6159556;23;20054;-76
2023/03/19 09:10:57;;;;;;;20.15;13.77;;;;;;;10.04;95.59;101408.13;6159927;23;20085;-76
2023/03/19 09:13:23;;;;;;;19.63;14.48;;;;;;;10.18;95.62;101417.66;6159482;23;20021;-76
2023/03/19 09:15:50;;;;;;;18.83;13.43;;;;;;;10.28;94.83;101422.00;6159006;23;20456;-76
2023/03/19 09:18:19;;;;;;;20.67;14.18;;;;;;;10.34;94.82;101420.31;6133003;23;20056;-77
2023/03/19 09:20:46;;;;;;;18.45;13.70;;;;;;;10.43;94.53;101423.09;6159479;23;20024;-76
2023/03/19 09:23:13;;;;;;;15.70;12.23;;;;;;;10.44;94.04;101419.25;6133368;23;20049;-75
2023/03/19 09:25:40;;;;;;;16.80;14.15;;;;;;;10.50;93.34;101424.81;6160115;23;20020;-77
2023/03/19 09:28:06;;;;;;;19.27;13.75;;;;;;;10.52;92.95;101425.88;6159615;23;20479;-77
2023/03/19 09:30:33;;;;;;;17.10;13.38;;;;;;;10.57;93.19;101429.94;6160349;23;20018;-76
2023/03/19 09:33:00;;;;;;;17.17;13.00;;;;;;;10.54;92.74;101430.78;6160845;23;20014;-76
2023/03/19 09:35:30;;;;;;;18.58;13.13;;;;;;;10.57;92.61;101427.28;6160413;23;20045;-75
2023/03/19 09:37:57;;;;;;;20.20;14.07;;;;;;;10.72;91.73;101428.41;6160710;23;20022;-74
2023/03/19 09:40:26;;;;;;;20.55;13.55;;;;;;;10.82;91.89;101437.97;6160559;23;20018;-76
2023/03/19 09:42:59;;;;;;;19.48;14.23;;;;;;;10.95;91.93;101438.00;6160849;23;20018;-76
2023/03/19 09:45:28;;;;;;;16.25;12.73;;;;;;;11.02;90.65;101441.22;6133486;23;20022;-77
2023/03/19 09:48:03;;;;;;;19.27;13.48;;;;;;;10.86;90.83;101451.94;6134056;23;20033;-75
2023/03/19 09:50:33;;;;;;;20.38;13.70;;;;;;;10.77;92.03;101449.19;6160529;23;20523;-74
2023/03/19 09:53:17;;;;;;;22.13;13.85;;;;;;;10.89;91.71;101458.34;6160788;23;20025;-74
2023/03/19 09:55:45;;;;;;;17.30;13.63;;;;;;;10.86;91.56;101465.25;6160833;23;20025;-76
2023/03/19 09:58:21;;;;;;;20.20;13.57;;;;;;;10.79;90.96;101465.50;6160253;23;20487;-76
2023/03/19 10:00:52;;;;;;;18.00;13.10;;;;;;;10.74;91.60;101468.66;6133831;23;20021;-75
2023/03/19 10:03:31;;;;;;;;;;;;;;;10.86;92.14;101467.19;6158682;23;20026;-73
2023/03/19 10:06:21;;;;;;;15.85;13.13;;;;;;;10.96;91.44;101476.81;6160825;23;19921;-76
2023/03/19 10:09:11;;;;;;;18.58;13.75;;;;;;;10.86;90.48;101475.91;6160353;23;20086;-76
2023/03/19 10:11:49;;;;;;;16.75;12.30;;;;;;;10.75;90.82;101475.50;6135560;23;20014;-76
2023/03/19 10:14:46;;;;;;;20.27;13.70;;;;;;;10.66;91.29;101483.34;6133852;23;20093;-77
2023/03/19 10:17:19;;;;;;;18.73;13.38;;;;;;;10.73;92.00;101477.81;6160679;23;20360;-76
2023/03/19 10:19:52;;;;;;;19.33;14.20;;;;;;;10.84;91.61;101477.50;6160819;23;20022;-77
2023/03/19 10:22:27;;;;;;;19.33;15.02;;;;;;;10.86;91.01;101481.25;6160775;23;20045;-77
2023/03/19 10:24:56;;;;;;;23.45;14.38;;;;;;;10.89;90.80;101484.97;6161476;23;20428;-74
2023/03/19 10:27:27;;;;;;;16.88;13.25;;;;;;;10.85;90.12;101485.09;6160512;23;20077;-73
2023/03/19 10:29:55;;;;;;;18.45;13.50;;;;;;;10.86;90.50;101489.25;6160269;23;20049;-77
2023/03/19 10:32:41;;;;;;;21.23;14.73;;;;;;;10.88;90.45;101491.47;6160751;23;20409;-76
2023/03/19 10:35:19;;;;;;;19.08;14.80;;;;;;;10.89;90.40;101498.31;6160464;23;20014;-76
2023/03/19 10:37:47;;;;;;;21.13;14.15;;;;;;;10.88;90.31;101492.22;6160779;23;20483;-75
2023/03/19 10:40:23;;;;;;;23.65;14.65;;;;;;;10.98;90.40;101485.88;6160168;23;20471;-75
2023/03/19 10:43:15;;;;;;;21.67;14.70;;;;;;;11.09;89.71;101487.47;6160056;23;20073;-75
2023/03/19 10:45:42;;;;;;;23.88;14.80;;;;;;;11.18;89.76;101490.28;6160583;23;20018;-75
2023/03/19 10:48:14;;;;;;;20.65;14.40;;;;;;;11.29;89.58;101488.78;6160114;23;20020;-74
2023/03/19 10:50:57;;;;;;;21.65;14.15;;;;;;;11.31;88.40;101491.75;6160675;23;20022;-74
2023/03/19 10:53:32;;;;;;;22.27;15.80;;;;;;;11.35;88.46;101497.75;6160179;23;20029;-76
2023/03/19 10:56:15;;;;;;;21.27;15.65;;;;;;;11.40;88.62;101504.47;6161254;23;20022;-74
2023/03/19 10:58:55;;;;;;;23.00;15.00;;;;;;;11.44;88.83;101507.03;6159936;23;20025;-75
2023/03/19 11:01:27;;;;;;;22.83;14.93;;;;;;;11.50;88.55;101510.66;6133769;23;20022;-75
2023/03/19 11:03:58;;;;;;;23.02;14.93;;;;;;;11.48;88.00;101508.41;6160663;23;20065;-75
2023/03/19 11:06:26;;;;;;;20.83;15.07;;;;;;;11.46;88.38;101513.41;6160340;23;20014;-75
2023/03/19 11:08:59;;;;;;;23.75;15.77;;;;;;;11.34;88.17;101522.91;6160288;23;20018;-75
2023/03/19 11:11:41;;;;;;;24.90;15.50;;;;;;;11.30;88.71;101535.56;6133543;23;20088;-75
2023/03/19 11:14:12;;;;;;;23.27;15.38;;;;;;;11.26;88.65;101534.19;6160340;23;20511;-75
2023/03/19 11:16:54;;;;;;;19.95;14.20;;;;;;;11.22;88.58;101536.19;6135390;23;20431;-76
2023/03/19 11:19:27;;;;;;;19.17;13.02;;;;;;;11.28;88.25;101539.84;6159987;23;20506;-76
2023/03/19 11:22:06;;;;;;;17.17;11.30;;;;;;;11.17;88.04;101534.09;6161574;23;20376;-75
2023/03/19 11:24:37;;;;;;;17.77;12.57;;;;;;;11.12;88.48;101531.94;6160066;23;20508;-75
2023/03/19 11:27:05;;;;;;;17.52;12.38;;;;;;;11.06;88.33;101525.63;6160105;23;20024;-75
2023/03/19 11:29:37;;;;;;;15.20;11.32;;;;;;;11.06;88.79;101531.72;6133547;23;20014;-76